Airfield :
LOGIN :

Register | Disclaimer

   EN    FR    IT 

 










Legend :    VFR   Marginal VFR   IFR   Intensive IFR   Very Intensive IFR
Visi :
Ceiling :
>= 8 km
>= 3000ft
5 to 8 km
1000 to 3000 ft
1500m to 5 km
500 to 1000 ft
800 to 1500m
200 to 500 ft
< 800m
< 200 ft
Symbols :   Thunderstorms  Fog  Heavy snow  Heavy precipitations  Wind > 20 kt
SIGMETs :     Misc.  Thunderstorms  Icing  Turbulence  Mountain Waves  Volcanic Ashes






- Airport Elevation : 399 ft
- IATA code : KIV


LUKK - Chisinau Int.

CURRENT METAR :
  • 122300Z 13007KT 9999 OVC009 12/10 Q1020 R08/D NOSIG

EXPIRED METARs :
  • 122230Z 12010KT 9999 OVC009 12/10 Q1021 R08/D NOSIG
  • 122200Z 13009KT 9999 OVC008 12/10 Q1021 R08/D NOSIG
  • 122130Z 13008KT 9999 OVC009 11/10 Q1021 R08/D NOSIG
  • 122100Z 14006KT 9000 OVC009 11/10 Q1021 R08/D NOSIG
  • 122030Z 12010KT 9000 OVC008 11/10 Q1021 R08/D BECMG OVC004

TAF TAF LUKK
Valid from the 12 at 18:00 until the 13 at 18:00 UTC


121720Z 1218/1318 13012KT 5000 BR BKN007
BECMG 1219/1221 OVC004
TEMPO 1221/1307 1500 OVC002
PROB30 1300/1307 0350 FG VV///
BECMG 1307/1309 9999 NSW SCT015
TEMPO 1309/1315 12016G26KT



MET'MAP, your aeronautical weather chart ! - Copyright ORBIFLY December 2007 - Disclaimer

ORBIFLY MET'MAP TEAM :

Programming & Development : Alexandra Zaïnal
Concept & Development : Baudouin d'Aumeries
Co-Development & Prog : Marc-Olivier Méhu
Technical & hardware support : Manuel Goepfert

Contact : metmap@orbifly.com




SOURCES & CREDITS :

   NOAA